createdAt,value
2023-03-02T00:02:23.038Z,0.60
2023-03-02T00:04:55.635Z,0.80
2023-03-02T00:07:26.784Z,0.80
2023-03-02T00:09:57.226Z,0.73
2023-03-02T00:12:30.480Z,0.80
2023-03-02T00:14:59.472Z,0.60
2023-03-02T00:17:31.868Z,0.50
2023-03-02T00:20:11.937Z,0.67
2023-03-02T00:22:42.634Z,0.70
2023-03-02T00:25:12.994Z,0.60
2023-03-02T00:27:43.922Z,0.70
2023-03-02T00:30:15.039Z,0.70
2023-03-02T00:32:45.404Z,0.80
2023-03-02T00:35:17.355Z,0.70
2023-03-02T00:37:47.968Z,0.80
2023-03-02T00:40:18.631Z,0.90
2023-03-02T00:42:50.326Z,0.80
2023-03-02T00:45:21.129Z,0.90
2023-03-02T00:47:51.893Z,0.90
2023-03-02T00:50:20.869Z,0.60
2023-03-02T00:52:50.842Z,0.73
2023-03-02T00:55:23.600Z,0.70
2023-03-02T00:57:58.103Z,0.70
2023-03-02T01:00:29.551Z,0.80
2023-03-02T01:03:01.009Z,0.60
2023-03-02T01:05:31.450Z,0.50
2023-03-02T01:08:02.580Z,0.77
2023-03-02T01:10:34.203Z,0.50
2023-03-02T01:13:04.481Z,0.73
2023-03-02T01:15:35.003Z,0.50
2023-03-02T01:18:04.394Z,0.50
2023-03-02T01:20:34.428Z,0.60
2023-03-02T01:23:03.884Z,0.60
2023-03-02T01:25:34.906Z,0.70
2023-03-02T01:28:06.044Z,0.50
2023-03-02T01:30:36.336Z,0.50
2023-03-02T01:33:06.015Z,0.60
2023-03-02T01:35:35.342Z,0.60
2023-03-02T01:38:05.656Z,0.53
2023-03-02T01:40:35.964Z,0.70
2023-03-02T01:43:18.383Z,0.70
2023-03-02T01:45:52.324Z,0.73
2023-03-02T01:48:24.699Z,0.80
2023-03-02T01:50:54.176Z,0.70
2023-03-02T01:53:26.632Z,0.80
2023-03-02T01:55:55.603Z,0.70
2023-03-02T01:58:26.453Z,0.80
2023-03-02T02:00:58.238Z,0.80
2023-03-02T02:03:29.389Z,0.53
2023-03-02T02:06:03.658Z,0.80
2023-03-02T02:08:33.851Z,0.60
2023-03-02T02:11:04.402Z,0.70
2023-03-02T02:13:36.112Z,0.77
2023-03-02T02:16:06.189Z,0.80
2023-03-02T02:18:38.631Z,0.77
2023-03-02T02:21:09.798Z,0.70
2023-03-02T02:23:45.478Z,0.77
2023-03-02T02:26:24.706Z,0.63
2023-03-02T02:28:58.232Z,0.60
2023-03-02T02:31:30.677Z,0.70
2023-03-02T02:34:06.472Z,0.70
2023-03-02T02:36:38.313Z,0.50
2023-03-02T02:39:14.976Z,0.60
2023-03-02T02:41:46.989Z,0.70
2023-03-02T02:44:21.349Z,0.50
2023-03-02T02:46:50.892Z,0.60
2023-03-02T02:49:33.651Z,0.70
2023-03-02T02:52:03.142Z,0.50
2023-03-02T02:54:36.219Z,0.80
2023-03-02T02:57:10.281Z,0.60
2023-03-02T02:59:44.480Z,0.80
2023-03-02T03:02:21.437Z,0.50
2023-03-02T03:04:50.848Z,0.70
2023-03-02T03:07:23.400Z,0.60
2023-03-02T03:09:59.077Z,0.53
2023-03-02T03:12:30.801Z,0.63
2023-03-02T03:15:00.944Z,0.50
2023-03-02T03:17:30.113Z,0.40
2023-03-02T03:20:06.720Z,0.60
2023-03-02T03:22:39.968Z,0.60
2023-03-02T03:25:10.170Z,0.53
2023-03-02T03:27:43.579Z,0.67
2023-03-02T03:30:16.689Z,0.80
2023-03-02T03:32:47.255Z,0.70
2023-03-02T03:35:18.438Z,0.70
2023-03-02T03:37:49.634Z,0.70
2023-03-02T03:40:20.673Z,0.50
2023-03-02T03:42:51.995Z,0.50
2023-03-02T03:45:25.603Z,0.87
2023-03-02T03:47:54.775Z,0.60
2023-03-02T03:50:24.190Z,0.60
2023-03-02T03:52:54.411Z,0.40
2023-03-02T03:55:23.903Z,0.57
2023-03-02T03:57:54.400Z,0.40
2023-03-02T04:00:24.953Z,0.50
2023-03-02T04:02:55.338Z,0.50
2023-03-02T04:05:26.234Z,0.73
2023-03-02T04:07:55.189Z,0.60
2023-03-02T04:10:26.785Z,0.50
2023-03-02T04:12:58.619Z,0.73
2023-03-02T04:15:28.458Z,0.50
2023-03-02T04:17:58.460Z,0.70
2023-03-02T04:20:29.604Z,0.90
2023-03-02T04:23:00.629Z,0.63
2023-03-02T04:25:32.492Z,0.80
2023-03-02T04:28:03.676Z,0.63
2023-03-02T04:30:34.476Z,0.60
2023-03-02T04:33:04.222Z,0.60
2023-03-02T04:35:34.062Z,0.80
2023-03-02T04:38:03.447Z,0.80
2023-03-02T04:40:34.717Z,0.60
2023-03-02T04:43:05.755Z,0.70
2023-03-02T04:45:36.816Z,0.50
2023-03-02T04:48:06.746Z,0.63
2023-03-02T04:50:36.136Z,0.60
2023-03-02T04:53:12.951Z,0.60
2023-03-02T04:55:43.312Z,0.40
2023-03-02T04:58:14.927Z,0.53
2023-03-02T05:00:44.792Z,0.60
2023-03-02T05:03:15.120Z,0.40
2023-03-02T05:05:46.372Z,0.50
2023-03-02T05:08:16.100Z,0.30
2023-03-02T05:10:46.026Z,0.40
2023-03-02T05:13:17.316Z,0.30
2023-03-02T05:15:48.642Z,0.40
2023-03-02T05:18:17.929Z,0.50
2023-03-02T05:20:47.918Z,0.40
2023-03-02T05:23:25.445Z,0.57
2023-03-02T05:25:57.164Z,0.20
2023-03-02T05:28:29.485Z,0.30
2023-03-02T05:30:59.317Z,0.20
2023-03-02T05:33:28.891Z,0.30
2023-03-02T05:35:59.413Z,0.27
2023-03-02T05:38:31.774Z,0.40
2023-03-02T05:41:05.773Z,0.30
2023-03-02T05:43:38.116Z,0.30
2023-03-02T05:46:08.871Z,0.10
2023-03-02T05:48:38.330Z,0.37
2023-03-02T05:51:07.399Z,0.30
2023-03-02T05:53:38.194Z,0.40
2023-03-02T05:56:08.397Z,0.10
2023-03-02T05:58:41.327Z,0.30
2023-03-02T06:01:14.881Z,0.20
2023-03-02T06:03:46.771Z,0.20
2023-03-02T06:06:17.807Z,0.30
2023-03-02T06:08:49.626Z,0.20
2023-03-02T06:11:19.027Z,0.10
2023-03-02T06:13:49.789Z,0.37
2023-03-02T06:16:20.462Z,0.40
2023-03-02T06:18:49.532Z,0.20
2023-03-02T06:21:18.881Z,0.30
2023-03-02T06:23:50.569Z,0.30
2023-03-02T06:26:21.483Z,0.40
2023-03-02T06:29:00.924Z,0.20
2023-03-02T06:31:31.308Z,0.30
2023-03-02T06:34:03.298Z,0.27
2023-03-02T06:36:32.895Z,0.47
2023-03-02T06:39:06.910Z,0.30
2023-03-02T06:41:37.358Z,0.30
2023-03-02T06:44:08.994Z,0.33
2023-03-02T06:46:39.003Z,0.30
2023-03-02T06:49:09.601Z,0.23
2023-03-02T06:51:39.959Z,0.30
2023-03-02T06:54:08.586Z,0.27
2023-03-02T06:56:41.923Z,0.27
2023-03-02T06:59:12.942Z,0.30
2023-03-02T07:01:44.894Z,0.30
2023-03-02T07:04:15.308Z,0.40
2023-03-02T07:06:45.233Z,0.40
2023-03-02T07:09:15.261Z,0.40
2023-03-02T07:11:45.575Z,0.30
2023-03-02T07:14:17.940Z,0.40
2023-03-02T07:16:47.419Z,0.40
2023-03-02T07:19:16.963Z,0.60
2023-03-02T07:21:46.135Z,0.43
2023-03-02T07:24:16.368Z,0.53
2023-03-02T07:26:46.199Z,0.50
2023-03-02T07:29:17.299Z,0.50
2023-03-02T07:31:49.283Z,0.40
2023-03-02T07:34:19.299Z,0.80
2023-03-02T07:36:48.544Z,0.40
2023-03-02T07:39:22.961Z,0.57
2023-03-02T07:41:52.255Z,0.50
2023-03-02T07:44:23.145Z,1.00
2023-03-02T07:46:52.808Z,1.30
2023-03-02T07:49:22.532Z,1.03
2023-03-02T07:51:52.009Z,1.20
2023-03-02T07:54:21.142Z,1.20
2023-03-02T07:56:51.560Z,1.07
2023-03-02T07:59:21.147Z,0.87
2023-03-02T08:01:51.918Z,1.00
2023-03-02T08:04:22.771Z,0.80
2023-03-02T08:06:51.612Z,1.07
2023-03-02T08:09:21.529Z,1.07
2023-03-02T08:11:51.184Z,0.90
2023-03-02T08:14:20.150Z,1.20
2023-03-02T08:16:50.043Z,1.30
2023-03-02T08:19:22.488Z,1.10
2023-03-02T08:21:52.283Z,1.40
2023-03-02T08:24:22.170Z,1.20
2023-03-02T08:26:52.613Z,1.00
2023-03-02T08:29:21.562Z,1.00
2023-03-02T08:31:50.993Z,0.97
2023-03-02T08:34:21.421Z,1.20
2023-03-02T08:36:51.446Z,1.10
2023-03-02T08:39:23.505Z,1.00
2023-03-02T08:41:52.696Z,1.00
2023-03-02T08:44:25.560Z,0.90
2023-03-02T08:46:56.297Z,0.90
2023-03-02T08:49:28.261Z,0.80
2023-03-02T08:51:57.645Z,0.83
2023-03-02T08:54:28.384Z,0.50
2023-03-02T08:56:58.036Z,0.70
2023-03-02T08:59:28.461Z,0.60
2023-03-02T09:01:58.632Z,0.70
2023-03-02T09:04:29.149Z,0.57
2023-03-02T09:07:00.769Z,0.80
2023-03-02T09:09:30.448Z,0.83
2023-03-02T09:12:01.808Z,0.83
2023-03-02T09:14:30.713Z,0.83
2023-03-02T09:17:00.333Z,0.70
2023-03-02T09:19:32.193Z,0.70
2023-03-02T09:22:03.498Z,0.50
2023-03-02T09:24:36.080Z,0.53
2023-03-02T09:27:04.804Z,0.50
2023-03-02T09:29:34.175Z,0.70
2023-03-02T09:32:04.398Z,0.30
2023-03-02T09:34:35.200Z,0.30
2023-03-02T09:37:05.943Z,0.47
2023-03-02T09:39:36.177Z,0.50
2023-03-02T09:42:23.985Z,0.67
2023-03-02T09:45:02.733Z,0.30
2023-03-02T09:47:37.891Z,0.50
2023-03-02T09:50:13.772Z,0.40
2023-03-02T09:52:46.667Z,0.40
2023-03-02T09:55:18.147Z,0.30
2023-03-02T09:57:49.573Z,0.60
2023-03-02T10:00:20.415Z,0.37
2023-03-02T10:02:51.023Z,0.40
2023-03-02T10:05:24.270Z,0.37
2023-03-02T10:07:54.135Z,0.30
2023-03-02T10:10:28.277Z,0.30
2023-03-02T10:13:03.373Z,0.37
2023-03-02T10:15:35.530Z,0.40
2023-03-02T10:18:12.331Z,0.20
2023-03-02T10:20:49.161Z,0.30
2023-03-02T10:23:26.223Z,0.50
2023-03-02T10:25:59.552Z,0.40
2023-03-02T10:28:32.024Z,0.20
2023-03-02T10:31:10.106Z,0.37
2023-03-02T10:33:42.438Z,0.27
2023-03-02T10:36:20.874Z,0.20
2023-03-02T10:38:50.776Z,0.20
2023-03-02T10:41:23.374Z,0.27
2023-03-02T10:43:56.360Z,0.70
2023-03-02T10:46:26.343Z,0.30
2023-03-02T10:48:57.835Z,0.20
2023-03-02T10:51:30.722Z,0.33
2023-03-02T10:54:06.991Z,0.20
2023-03-02T10:56:38.000Z,0.20
2023-03-02T10:59:17.704Z,0.10
2023-03-02T11:01:47.366Z,0.40
2023-03-02T11:04:17.506Z,0.30
2023-03-02T11:06:48.967Z,0.10
2023-03-02T11:09:18.815Z,0.30
2023-03-02T11:11:52.782Z,0.20
2023-03-02T11:14:24.187Z,0.10
2023-03-02T11:16:54.262Z,0.10
2023-03-02T11:19:27.940Z,0.20
2023-03-02T11:22:02.132Z,0.20
2023-03-02T11:24:34.617Z,0.20
2023-03-02T11:27:09.607Z,0.20
2023-03-02T11:29:40.124Z,0.10
2023-03-02T11:32:14.220Z,0.20
2023-03-02T11:34:47.364Z,0.10
2023-03-02T11:37:21.890Z,0.10
2023-03-02T11:39:59.319Z,0.13
2023-03-02T11:42:31.892Z,0.20
2023-03-02T11:45:05.175Z,0.17
2023-03-02T11:47:35.488Z,0.10
2023-03-02T11:50:06.602Z,0.10
2023-03-02T11:52:41.135Z,0.20
2023-03-02T11:55:18.791Z,0.10
2023-03-02T11:57:50.497Z,0.20
2023-03-02T12:00:34.496Z,0.17
2023-03-02T12:03:06.613Z,0.20
2023-03-02T12:05:38.327Z,0.10
2023-03-02T12:08:10.734Z,0.30
2023-03-02T12:10:42.963Z,0.40
2023-03-02T12:13:20.668Z,0.10
2023-03-02T12:15:54.085Z,0.10
2023-03-02T12:18:42.660Z,0.20
2023-03-02T12:21:13.449Z,0.30
2023-03-02T12:23:58.750Z,0.23
2023-03-02T12:26:29.846Z,0.10
2023-03-02T12:29:01.881Z,0.20
2023-03-02T12:31:42.306Z,0.23
2023-03-02T12:34:25.532Z,0.20
2023-03-02T12:36:58.935Z,0.40
2023-03-02T12:39:33.595Z,0.20
2023-03-02T12:42:11.741Z,0.30
2023-03-02T12:44:51.222Z,0.30
2023-03-02T12:47:28.038Z,0.10
2023-03-02T12:49:59.457Z,0.30
2023-03-02T12:52:33.248Z,0.20
2023-03-02T12:55:07.450Z,0.30
2023-03-02T12:57:39.581Z,0.20
2023-03-02T13:00:19.664Z,0.00
2023-03-02T13:02:50.389Z,0.30
2023-03-02T13:05:21.782Z,0.27
2023-03-02T13:07:55.544Z,0.30
2023-03-02T13:10:30.645Z,0.10
2023-03-02T13:12:59.948Z,0.30
2023-03-02T13:15:29.532Z,0.40
2023-03-02T13:18:00.973Z,0.23
2023-03-02T13:20:31.340Z,0.30
2023-03-02T13:23:01.056Z,0.43
2023-03-02T13:25:33.848Z,0.40
2023-03-02T13:28:07.957Z,0.40
2023-03-02T13:30:44.396Z,0.20
2023-03-02T13:33:24.287Z,0.40
2023-03-02T13:35:58.298Z,0.30
2023-03-02T13:38:29.555Z,0.30
2023-03-02T13:41:02.602Z,0.30
2023-03-02T13:43:39.568Z,0.20
2023-03-02T13:46:10.397Z,0.30
2023-03-02T13:48:41.382Z,0.30
2023-03-02T13:51:18.755Z,0.10
2023-03-02T13:53:56.127Z,0.40
2023-03-02T13:56:31.689Z,0.30
2023-03-02T13:59:00.927Z,0.30
2023-03-02T14:01:30.488Z,0.20
2023-03-02T14:04:03.592Z,0.30
2023-03-02T14:06:35.671Z,0.20
2023-03-02T14:09:05.998Z,0.20
2023-03-02T14:11:38.699Z,0.30
2023-03-02T14:14:09.555Z,0.20
2023-03-02T14:16:38.984Z,0.10
2023-03-02T14:19:09.651Z,0.30
2023-03-02T14:21:39.571Z,0.20
2023-03-02T14:24:09.325Z,0.13
2023-03-02T14:26:41.853Z,0.17
2023-03-02T14:29:19.387Z,0.20
2023-03-02T14:31:50.431Z,0.20
2023-03-02T14:34:21.606Z,0.30
2023-03-02T14:36:52.770Z,0.30
2023-03-02T14:39:23.769Z,0.17
2023-03-02T14:41:56.258Z,0.10
2023-03-02T14:44:26.375Z,0.20
2023-03-02T14:46:57.568Z,0.10
2023-03-02T14:49:27.907Z,0.30
2023-03-02T14:52:02.542Z,0.30
2023-03-02T14:54:37.974Z,0.30
2023-03-02T14:57:16.960Z,0.30
2023-03-02T14:59:47.219Z,0.20
2023-03-02T15:02:25.222Z,0.10
2023-03-02T15:04:57.379Z,0.30
2023-03-02T15:07:28.466Z,0.20
2023-03-02T15:09:57.752Z,0.10
2023-03-02T15:12:29.089Z,0.10
2023-03-02T15:14:58.907Z,0.30
2023-03-02T15:17:29.709Z,0.20
2023-03-02T15:19:59.402Z,0.30
2023-03-02T15:22:28.249Z,0.10
2023-03-02T15:24:57.346Z,0.10
2023-03-02T15:27:29.427Z,0.10
2023-03-02T15:29:59.072Z,0.20
2023-03-02T15:32:32.555Z,0.20
2023-03-02T15:35:02.173Z,0.20
2023-03-02T15:37:32.230Z,0.20
2023-03-02T15:40:02.382Z,0.10
2023-03-02T15:42:33.297Z,0.30
2023-03-02T15:45:07.746Z,0.47
2023-03-02T15:47:37.996Z,0.10
2023-03-02T15:50:08.022Z,0.10
2023-03-02T15:52:37.603Z,0.20
2023-03-02T15:55:08.935Z,0.20
2023-03-02T15:57:42.536Z,0.20
2023-03-02T16:00:13.677Z,0.10
2023-03-02T16:02:43.494Z,0.20
2023-03-02T16:05:14.922Z,0.10
2023-03-02T16:07:45.513Z,0.17
2023-03-02T16:10:17.160Z,0.10
2023-03-02T16:12:48.217Z,0.30
2023-03-02T16:15:17.800Z,0.10
2023-03-02T16:17:47.358Z,0.20
2023-03-02T16:20:17.211Z,0.20
2023-03-02T16:22:47.133Z,0.20
2023-03-02T16:25:18.684Z,0.10
2023-03-02T16:27:50.195Z,0.30
2023-03-02T16:30:23.080Z,0.10
2023-03-02T16:32:54.251Z,0.20
2023-03-02T16:35:24.047Z,0.10
2023-03-02T16:37:54.320Z,0.20
2023-03-02T16:40:24.068Z,0.17
2023-03-02T16:42:55.074Z,0.20
2023-03-02T16:45:26.073Z,0.30
2023-03-02T16:47:56.048Z,0.20
2023-03-02T16:50:26.073Z,0.23
2023-03-02T16:52:56.705Z,0.33
2023-03-02T16:55:29.701Z,0.30
2023-03-02T16:58:00.904Z,0.20
2023-03-02T17:00:31.696Z,0.30
2023-03-02T17:03:01.405Z,0.30
2023-03-02T17:05:30.620Z,0.30
2023-03-02T17:08:04.385Z,0.20
2023-03-02T17:10:34.093Z,0.30
2023-03-02T17:13:04.922Z,0.10
2023-03-02T17:15:37.461Z,0.30
2023-03-02T17:18:06.747Z,0.50
2023-03-02T17:20:36.000Z,0.23
2023-03-02T17:23:05.512Z,0.10
2023-03-02T17:25:41.195Z,0.20
2023-03-02T17:28:13.120Z,0.30
2023-03-02T17:30:43.224Z,0.60
2023-03-02T17:33:13.696Z,0.13
2023-03-02T17:35:43.211Z,0.13
2023-03-02T17:38:15.777Z,0.20
2023-03-02T17:40:45.401Z,0.30
2023-03-02T17:43:16.417Z,0.30
2023-03-02T17:45:47.000Z,0.27
2023-03-02T17:48:16.685Z,0.10
2023-03-02T17:50:46.785Z,0.30
2023-03-02T17:53:17.444Z,0.13
2023-03-02T17:55:47.721Z,0.30
2023-03-02T17:58:22.529Z,0.23
2023-03-02T18:00:54.007Z,0.20
2023-03-02T18:03:23.160Z,0.30
2023-03-02T18:05:54.707Z,0.23
2023-03-02T18:08:24.813Z,0.20
2023-03-02T18:10:54.499Z,0.30
2023-03-02T18:13:26.163Z,0.50
2023-03-02T18:15:55.162Z,0.30
2023-03-02T18:18:24.584Z,0.37
2023-03-02T18:20:55.232Z,0.30
2023-03-02T18:23:47.089Z,0.40
2023-03-02T18:26:22.925Z,0.10
2023-03-02T18:28:54.350Z,0.30
2023-03-02T18:31:25.560Z,0.40
2023-03-02T18:33:54.833Z,0.30
2023-03-02T18:36:40.096Z,0.20
2023-03-02T18:39:11.382Z,0.87
2023-03-02T18:41:40.791Z,0.20
2023-03-02T18:44:12.222Z,0.30
2023-03-02T18:46:41.456Z,0.33
2023-03-02T18:49:12.291Z,0.40
2023-03-02T18:51:44.583Z,0.30
2023-03-02T18:54:13.465Z,0.37
2023-03-02T18:56:43.067Z,0.10
2023-03-02T18:59:15.180Z,0.20
2023-03-02T19:01:45.147Z,0.10
2023-03-02T19:04:15.645Z,0.23
2023-03-02T19:06:47.444Z,0.10
2023-03-02T19:09:20.656Z,0.40
2023-03-02T19:11:50.464Z,0.17
2023-03-02T19:14:20.850Z,0.20
2023-03-02T19:16:50.668Z,0.30
2023-03-02T19:19:22.428Z,0.20
2023-03-02T19:21:52.475Z,0.17
2023-03-02T19:24:48.204Z,0.47
2023-03-02T19:27:23.696Z,0.30
2023-03-02T19:29:57.184Z,0.30
2023-03-02T19:32:27.936Z,0.10
2023-03-02T19:35:02.306Z,0.50
2023-03-02T19:37:35.194Z,0.23
2023-03-02T19:40:17.381Z,0.30
2023-03-02T19:42:51.723Z,0.60
2023-03-02T19:45:25.973Z,0.50
2023-03-02T19:47:57.605Z,0.53
2023-03-02T19:50:29.670Z,0.40
2023-03-02T19:53:03.017Z,0.40
2023-03-02T19:55:40.447Z,0.37
2023-03-02T19:58:11.737Z,0.47
2023-03-02T20:00:58.586Z,0.70
2023-03-02T20:03:33.952Z,0.60
2023-03-02T20:06:08.917Z,0.60
2023-03-02T20:08:38.117Z,0.63
2023-03-02T20:11:07.678Z,0.80
2023-03-02T20:13:38.255Z,0.47
2023-03-02T20:16:09.872Z,0.50
2023-03-02T20:18:39.704Z,0.40
2023-03-02T20:21:08.936Z,0.40
2023-03-02T20:23:38.921Z,0.70
2023-03-02T20:26:08.851Z,0.63
2023-03-02T20:28:42.518Z,0.60
2023-03-02T20:31:15.185Z,0.80
2023-03-02T20:33:47.167Z,0.50
2023-03-02T20:36:17.073Z,0.60
2023-03-02T20:38:50.892Z,0.60
2023-03-02T20:41:20.977Z,0.47
2023-03-02T20:43:50.058Z,0.60
2023-03-02T20:46:23.335Z,0.47
2023-03-02T20:48:53.612Z,0.40
2023-03-02T20:51:26.732Z,0.40
2023-03-02T20:53:58.285Z,0.63
2023-03-02T20:56:28.480Z,0.50
2023-03-02T20:59:01.299Z,0.60
2023-03-02T21:01:34.792Z,0.60
2023-03-02T21:04:06.213Z,0.83
2023-03-02T21:06:43.736Z,0.63
2023-03-02T21:09:16.022Z,0.70
2023-03-02T21:11:46.395Z,0.50
2023-03-02T21:14:17.607Z,0.70
2023-03-02T21:16:48.423Z,0.87
2023-03-02T21:19:20.580Z,0.60
2023-03-02T21:21:49.972Z,0.63
2023-03-02T21:24:21.164Z,0.60
2023-03-02T21:26:52.940Z,0.60
2023-03-02T21:29:24.016Z,0.70
2023-03-02T21:31:56.591Z,0.80
2023-03-02T21:34:25.783Z,0.63
2023-03-02T21:36:56.342Z,0.67
2023-03-02T21:39:26.845Z,1.00
2023-03-02T21:41:56.580Z,0.80
2023-03-02T21:44:26.741Z,1.00
2023-03-02T21:46:58.141Z,0.90
2023-03-02T21:49:31.745Z,0.97
2023-03-02T21:52:01.706Z,0.90
2023-03-02T21:54:33.661Z,0.90
2023-03-02T21:57:04.555Z,1.20
2023-03-02T21:59:34.180Z,1.17
2023-03-02T22:02:05.306Z,1.03
2023-03-02T22:04:36.717Z,1.10
2023-03-02T22:07:08.676Z,1.00
2023-03-02T22:09:42.549Z,0.90
2023-03-02T22:12:15.952Z,1.10
2023-03-02T22:14:46.306Z,1.10
2023-03-02T22:17:19.584Z,1.20
2023-03-02T22:19:49.943Z,1.10
2023-03-02T22:22:23.448Z,1.20
2023-03-02T22:24:54.018Z,1.10
2023-03-02T22:27:29.035Z,0.97
2023-03-02T22:30:01.769Z,1.00
2023-03-02T22:32:40.161Z,1.17
2023-03-02T22:35:21.588Z,1.07
2023-03-02T22:37:57.325Z,1.40
2023-03-02T22:40:29.621Z,1.10
2023-03-02T22:43:10.675Z,1.20
2023-03-02T22:45:41.526Z,1.10
2023-03-02T22:48:16.188Z,1.07
2023-03-02T22:50:46.512Z,1.07
2023-03-02T22:53:29.925Z,1.10
2023-03-02T22:56:02.972Z,0.73
2023-03-02T22:58:38.564Z,0.83
2023-03-02T23:01:19.455Z,0.93
2023-03-02T23:03:51.052Z,0.80
2023-03-02T23:06:24.765Z,1.00
2023-03-02T23:08:57.117Z,0.80
2023-03-02T23:11:30.029Z,1.07
2023-03-02T23:14:02.933Z,0.70
2023-03-02T23:16:36.994Z,0.77
2023-03-02T23:19:10.793Z,0.80
2023-03-02T23:21:42.377Z,1.03
2023-03-02T23:24:20.536Z,0.80
2023-03-02T23:26:50.707Z,1.00
2023-03-02T23:29:26.047Z,0.80
2023-03-02T23:31:56.366Z,0.67
2023-03-02T23:34:31.418Z,0.70
2023-03-02T23:37:02.535Z,0.60
2023-03-02T23:39:34.710Z,0.90
2023-03-02T23:42:05.823Z,0.80
2023-03-02T23:44:35.269Z,0.70
2023-03-02T23:47:04.863Z,1.00
2023-03-02T23:49:36.296Z,1.00
2023-03-02T23:52:05.823Z,0.77
2023-03-02T23:54:35.529Z,1.00
2023-03-02T23:57:05.990Z,0.83
2023-03-02T23:59:36.171Z,0.90
